createdAt,value
2019-06-01T00:01:42.716Z,14.90
2019-06-01T00:04:09.860Z,12.57
2019-06-01T00:06:37.012Z,12.63
2019-06-01T00:09:06.609Z,12.90
2019-06-01T00:11:33.760Z,12.70
2019-06-01T00:14:02.978Z,13.83
2019-06-01T00:16:30.019Z,13.60
2019-06-01T00:18:57.072Z,13.63
2019-06-01T00:21:24.124Z,14.57
2019-06-01T00:23:52.729Z,13.57
2019-06-01T00:26:20.051Z,15.83
2019-06-01T00:28:48.220Z,12.77
2019-06-01T00:31:15.384Z,12.27
2019-06-01T00:33:43.346Z,13.27
2019-06-01T00:36:10.817Z,13.43
2019-06-01T00:38:37.888Z,13.70
2019-06-01T00:41:05.048Z,12.80
2019-06-01T00:43:32.106Z,14.57
2019-06-01T00:45:59.592Z,12.80
2019-06-01T00:48:26.790Z,13.40
2019-06-01T00:50:53.929Z,14.03
2019-06-01T00:53:21.124Z,13.70
2019-06-01T00:55:49.339Z,13.67
2019-06-01T00:58:16.756Z,15.27
2019-06-01T01:00:45.682Z,15.00
2019-06-01T01:03:12.787Z,14.20
2019-06-01T01:05:39.848Z,13.97
2019-06-01T01:08:07.008Z,12.60
2019-06-01T01:10:34.192Z,13.97
2019-06-01T01:13:07.425Z,13.03
2019-06-01T01:15:34.590Z,17.40
2019-06-01T01:18:01.865Z,13.43
2019-06-01T01:20:29.020Z,13.73
2019-06-01T01:22:56.460Z,14.37
2019-06-01T01:25:23.945Z,13.37
2019-06-01T01:27:50.988Z,13.07
2019-06-01T01:30:20.310Z,14.17
2019-06-01T01:32:47.462Z,13.57
2019-06-01T01:35:14.732Z,13.40
2019-06-01T01:37:41.884Z,13.33
2019-06-01T01:40:09.841Z,13.60
2019-06-01T01:42:37.008Z,14.47
2019-06-01T01:45:05.675Z,13.13
2019-06-01T01:47:32.756Z,14.13
2019-06-01T01:49:59.804Z,13.00
2019-06-01T01:52:27.111Z,13.30
2019-06-01T01:54:54.713Z,12.60
2019-06-01T01:57:21.920Z,13.70
2019-06-01T01:59:48.983Z,12.67
2019-06-01T02:02:16.037Z,13.40
2019-06-01T02:04:43.100Z,13.23
2019-06-01T02:07:10.157Z,12.83
2019-06-01T02:09:37.200Z,13.70
2019-06-01T02:12:04.361Z,13.63
2019-06-01T02:14:31.388Z,13.57
2019-06-01T02:17:00.270Z,12.97
2019-06-01T02:19:27.610Z,14.47
2019-06-01T02:21:54.671Z,15.57
2019-06-01T02:24:21.732Z,14.10
2019-06-01T02:26:48.827Z,14.30
2019-06-01T02:29:15.953Z,14.27
2019-06-01T02:31:43.105Z,13.43
2019-06-01T02:34:10.341Z,14.50
2019-06-01T02:36:37.510Z,14.77
2019-06-01T02:39:05.928Z,14.37
2019-06-01T02:41:32.992Z,14.20
2019-06-01T02:44:01.643Z,13.90
2019-06-01T02:46:29.010Z,14.33
2019-06-01T02:48:57.375Z,14.90
2019-06-01T02:51:24.643Z,14.37
2019-06-01T02:53:51.795Z,16.07
2019-06-01T02:56:18.862Z,15.87
2019-06-01T02:58:45.899Z,15.50
2019-06-01T03:01:56.073Z,16.33
2019-06-01T03:04:12.932Z,14.90
2019-06-01T03:06:42.239Z,15.43
2019-06-01T03:09:10.295Z,15.60
2019-06-01T03:11:39.763Z,14.60
2019-06-01T03:14:09.374Z,16.07
2019-06-01T03:16:40.202Z,15.20
2019-06-01T03:19:08.079Z,14.83
2019-06-01T03:21:36.145Z,14.80
2019-06-01T03:24:08.598Z,16.57
2019-06-01T03:26:40.576Z,16.27
2019-06-01T03:29:10.139Z,15.47
2019-06-01T03:31:37.292Z,15.90
2019-06-01T03:34:06.474Z,15.50
2019-06-01T03:36:33.929Z,15.50
2019-06-01T03:39:02.113Z,16.20
2019-06-01T03:41:30.914Z,17.03
2019-06-01T03:43:57.986Z,16.00
2019-06-01T03:46:25.133Z,16.10
2019-06-01T03:48:52.206Z,16.37
2019-06-01T03:51:19.246Z,16.53
2019-06-01T03:53:46.302Z,17.47
2019-06-01T03:56:13.356Z,17.23
2019-06-01T03:58:40.417Z,16.67
2019-06-01T04:01:07.470Z,17.47
2019-06-01T04:03:34.528Z,17.57
2019-06-01T04:06:01.576Z,16.37
2019-06-01T04:08:29.052Z,19.30
2019-06-01T04:10:56.120Z,16.00
2019-06-01T04:13:23.180Z,16.17
2019-06-01T04:15:50.339Z,15.53
2019-06-01T04:18:17.401Z,15.87
2019-06-01T04:20:44.656Z,15.60
2019-06-01T04:23:12.403Z,16.17
2019-06-01T04:25:39.571Z,16.30
2019-06-01T04:28:12.583Z,16.20
2019-06-01T04:30:40.072Z,18.33
2019-06-01T04:33:07.223Z,15.97
2019-06-01T04:35:34.280Z,14.47
2019-06-01T04:38:01.352Z,16.83
2019-06-01T04:40:28.404Z,13.90
2019-06-01T04:42:55.496Z,14.43
2019-06-01T04:45:22.544Z,14.70
2019-06-01T04:47:49.604Z,14.80
2019-06-01T04:50:16.856Z,13.83
2019-06-01T04:52:44.312Z,13.50
2019-06-01T04:55:11.592Z,13.20
2019-06-01T04:57:39.844Z,13.17
2019-06-01T05:00:12.587Z,13.00
2019-06-01T05:02:36.483Z,13.17
2019-06-01T05:05:04.862Z,12.30
2019-06-01T05:07:32.065Z,12.77
2019-06-01T05:09:59.111Z,12.13
2019-06-01T05:12:26.147Z,12.60
2019-06-01T05:14:53.220Z,12.30
2019-06-01T05:17:20.268Z,11.47
2019-06-01T05:19:47.348Z,12.17
2019-06-01T05:22:14.654Z,12.13
2019-06-01T05:24:41.875Z,11.20
2019-06-01T05:27:09.048Z,11.53
2019-06-01T05:29:36.100Z,9.37
2019-06-01T05:32:03.472Z,10.47
2019-06-01T05:34:30.548Z,9.17
2019-06-01T05:36:57.656Z,9.50
2019-06-01T05:39:24.761Z,9.37
2019-06-01T05:41:51.811Z,9.57
2019-06-01T05:44:19.303Z,8.73
2019-06-01T05:46:46.944Z,9.27
2019-06-01T05:49:14.744Z,8.90
2019-06-01T05:51:42.176Z,8.67
2019-06-01T05:54:10.376Z,9.13
2019-06-01T05:56:37.705Z,8.90
2019-06-01T05:59:04.865Z,8.70
2019-06-01T06:01:31.919Z,8.40
2019-06-01T06:03:58.980Z,8.40
2019-06-01T06:06:26.027Z,8.90
2019-06-01T06:08:53.098Z,8.83
2019-06-01T06:11:21.160Z,9.93
2019-06-01T06:13:48.546Z,8.50
2019-06-01T06:16:15.775Z,8.40
2019-06-01T06:18:42.974Z,8.83
2019-06-01T06:21:10.028Z,9.45
2019-06-01T06:23:37.083Z,9.03
2019-06-01T06:26:04.146Z,8.60
2019-06-01T06:28:31.200Z,8.50
2019-06-01T06:30:58.275Z,8.33
2019-06-01T06:33:25.363Z,8.10
2019-06-01T06:35:52.429Z,8.63
2019-06-01T06:40:44.754Z,9.00
2019-06-01T06:43:21.327Z,10.20
2019-06-01T06:45:40.908Z,8.70
2019-06-01T06:48:08.068Z,8.33
2019-06-01T06:50:35.132Z,8.70
2019-06-01T06:53:02.201Z,9.17
2019-06-01T06:55:29.362Z,8.90
2019-06-01T06:57:56.415Z,8.10
2019-06-01T07:00:24.804Z,8.87
2019-06-01T07:02:52.346Z,8.07
2019-06-01T07:05:19.397Z,8.10
2019-06-01T07:07:46.451Z,7.93
2019-06-01T07:10:13.721Z,6.50
2019-06-01T07:12:40.785Z,6.40
2019-06-01T07:15:08.149Z,6.70
2019-06-01T07:17:35.188Z,7.17
2019-06-01T07:20:02.751Z,6.40
2019-06-01T07:22:29.791Z,7.57
2019-06-01T07:24:56.853Z,6.10
2019-06-01T07:27:24.169Z,5.53
2019-06-01T07:29:51.491Z,7.60
2019-06-01T07:32:18.534Z,6.33
2019-06-01T07:34:47.726Z,5.57
2019-06-01T07:37:14.790Z,4.80
2019-06-01T07:39:41.858Z,5.40
2019-06-01T07:42:09.026Z,4.50
2019-06-01T07:44:36.228Z,4.30
2019-06-01T07:47:03.381Z,4.37
2019-06-01T07:49:31.194Z,4.30
2019-06-01T07:51:58.634Z,4.57
2019-06-01T07:54:26.354Z,5.07
2019-06-01T07:56:53.535Z,4.10
2019-06-01T07:59:21.510Z,4.10
2019-06-01T08:01:49.619Z,4.13
2019-06-01T08:04:16.737Z,3.80
2019-06-01T08:06:47.003Z,4.70
2019-06-01T08:09:12.764Z,5.07
2019-06-01T08:11:39.842Z,4.20
2019-06-01T08:14:06.923Z,3.80
2019-06-01T08:16:33.984Z,4.13
2019-06-01T08:19:01.044Z,4.80
2019-06-01T08:21:28.195Z,3.60
2019-06-01T08:23:55.264Z,4.07
2019-06-01T08:26:22.604Z,4.73
2019-06-01T08:28:49.667Z,4.70
2019-06-01T08:31:16.819Z,4.43
2019-06-01T08:33:43.871Z,4.60
2019-06-01T08:36:10.931Z,4.10
2019-06-01T08:38:37.985Z,3.90
2019-06-01T08:41:05.249Z,4.10
2019-06-01T08:43:32.292Z,4.60
2019-06-01T08:45:59.361Z,4.57
2019-06-01T08:48:27.649Z,5.43
2019-06-01T08:50:54.793Z,5.40
2019-06-01T08:53:21.843Z,4.53
2019-06-01T08:55:48.910Z,4.87
2019-06-01T08:58:15.960Z,6.80
2019-06-01T09:00:43.016Z,5.40
2019-06-01T09:03:10.417Z,5.90
2019-06-01T09:05:37.489Z,4.93
2019-06-01T09:08:04.547Z,5.50
2019-06-01T09:10:31.637Z,4.73
2019-06-01T09:12:58.751Z,5.40
2019-06-01T09:15:25.793Z,4.37
2019-06-01T09:17:52.935Z,5.17
2019-06-01T09:20:20.024Z,4.90
2019-06-01T09:22:48.172Z,5.23
2019-06-01T09:25:15.640Z,5.50
2019-06-01T09:27:42.936Z,5.00
2019-06-01T09:32:42.581Z,5.33
2019-06-01T09:35:09.931Z,5.63
2019-06-01T09:37:36.987Z,6.27
2019-06-01T09:40:05.424Z,5.37
2019-06-01T09:42:33.378Z,5.07
2019-06-01T09:45:01.314Z,5.67
2019-06-01T09:47:29.051Z,5.43
2019-06-01T09:49:56.130Z,6.93
2019-06-01T09:52:23.280Z,6.40
2019-06-01T09:54:50.333Z,4.57
2019-06-01T09:57:17.495Z,4.70
2019-06-01T09:59:44.548Z,4.33
2019-06-01T10:02:11.592Z,4.53
2019-06-01T10:04:39.188Z,4.50
2019-06-01T10:07:06.244Z,4.60
2019-06-01T10:09:33.602Z,4.73
2019-06-01T10:12:00.872Z,5.20
2019-06-01T10:14:27.929Z,7.13
2019-06-01T10:16:54.992Z,5.50
2019-06-01T10:19:22.037Z,6.73
2019-06-01T10:21:49.202Z,5.63
2019-06-01T10:24:16.250Z,6.40
2019-06-01T10:26:43.308Z,5.63
2019-06-01T10:29:10.456Z,5.53
2019-06-01T10:31:41.079Z,6.13
2019-06-01T10:34:06.619Z,5.30
2019-06-01T10:36:34.038Z,4.47
2019-06-01T10:39:01.207Z,5.17
2019-06-01T10:41:28.260Z,7.10
2019-06-01T10:43:55.366Z,3.93
2019-06-01T10:46:22.439Z,5.70
2019-06-01T10:48:49.526Z,3.70
2019-06-01T10:51:16.581Z,5.93
2019-06-01T10:53:43.875Z,3.90
2019-06-01T10:56:11.400Z,3.70
2019-06-01T10:58:54.719Z,4.23
2019-06-01T11:01:07.428Z,4.60
2019-06-01T11:03:34.697Z,4.57
2019-06-01T11:06:02.144Z,3.53
2019-06-01T11:08:29.201Z,3.23
2019-06-01T11:10:56.258Z,3.53
2019-06-01T11:13:23.979Z,3.20
2019-06-01T11:15:51.053Z,3.23
2019-06-01T11:18:18.520Z,5.50
2019-06-01T11:20:45.597Z,4.43
2019-06-01T11:23:12.640Z,5.03
2019-06-01T11:25:39.733Z,4.40
2019-06-01T11:28:06.860Z,4.03
2019-06-01T11:30:34.164Z,3.40
2019-06-01T11:33:01.224Z,4.33
2019-06-01T11:35:28.280Z,4.80
2019-06-01T11:37:55.435Z,3.90
2019-06-01T11:40:22.490Z,6.03
2019-06-01T11:42:50.437Z,3.40
2019-06-01T11:45:17.580Z,3.23
2019-06-01T11:47:45.114Z,3.03
2019-06-01T11:50:13.292Z,4.03
2019-06-01T11:52:41.139Z,3.07
2019-06-01T11:55:09.233Z,3.83
2019-06-01T11:57:37.446Z,3.93
2019-06-01T12:00:06.900Z,3.40
2019-06-01T12:04:24.844Z,3.40
2019-06-01T12:06:52.016Z,3.43
2019-06-01T12:09:19.188Z,4.43
2019-06-01T12:11:46.494Z,4.03
2019-06-01T12:14:13.624Z,3.33
2019-06-01T12:16:40.692Z,4.13
2019-06-01T12:19:08.265Z,4.10
2019-06-01T12:21:36.849Z,3.20
2019-06-01T12:24:04.357Z,4.57
2019-06-01T12:26:31.408Z,3.63
2019-06-01T12:28:58.451Z,3.93
2019-06-01T12:31:25.511Z,3.30
2019-06-01T12:33:52.574Z,5.77
2019-06-01T12:36:19.736Z,4.27
2019-06-01T12:38:52.781Z,3.43
2019-06-01T12:41:21.335Z,5.73
2019-06-01T12:44:08.315Z,3.47
2019-06-01T12:46:35.951Z,3.40
2019-06-01T12:49:03.629Z,3.67
2019-06-01T12:51:30.945Z,5.40
2019-06-01T12:53:58.994Z,4.00
2019-06-01T12:56:26.178Z,3.23
2019-06-01T12:58:53.235Z,3.20
2019-06-01T13:01:20.319Z,6.80
2019-06-01T13:03:47.553Z,4.20
2019-06-01T13:06:14.744Z,3.17
2019-06-01T13:08:42.700Z,3.17
2019-06-01T13:11:10.076Z,3.33
2019-06-01T13:13:37.137Z,4.20
2019-06-01T13:16:04.192Z,4.03
2019-06-01T13:18:32.256Z,3.20
2019-06-01T13:20:59.311Z,3.37
2019-06-01T13:23:26.479Z,3.63
2019-06-01T13:25:53.535Z,3.53
2019-06-01T13:28:28.970Z,3.80
2019-06-01T13:30:51.020Z,4.03
2019-06-01T13:33:18.410Z,3.80
2019-06-01T13:35:46.577Z,3.73
2019-06-01T13:38:14.147Z,4.47
2019-06-01T13:40:41.280Z,3.27
2019-06-01T13:43:08.436Z,4.53
2019-06-01T13:45:35.492Z,4.63
2019-06-01T13:48:02.649Z,4.83
2019-06-01T13:50:29.708Z,2.93
2019-06-01T13:52:56.883Z,4.30
2019-06-01T13:55:23.939Z,3.07
2019-06-01T13:57:51.003Z,3.80
2019-06-01T14:00:29.848Z,6.40
2019-06-01T14:02:52.108Z,3.80
2019-06-01T14:05:16.557Z,4.23
2019-06-01T14:07:43.616Z,4.97
2019-06-01T14:10:11.451Z,5.87
2019-06-01T14:12:39.657Z,3.70
2019-06-01T14:15:07.126Z,2.70
2019-06-01T14:17:34.428Z,3.90
2019-06-01T14:20:01.495Z,3.00
2019-06-01T14:22:28.553Z,3.60
2019-06-01T14:25:11.853Z,4.53
2019-06-01T14:27:24.576Z,2.90
2019-06-01T14:29:52.362Z,3.00
2019-06-01T14:32:19.509Z,4.40
2019-06-01T14:34:46.556Z,2.73
2019-06-01T14:37:13.609Z,3.20
2019-06-01T14:39:41.166Z,3.53
2019-06-01T14:42:08.209Z,2.90
2019-06-01T14:44:35.267Z,4.47
2019-06-01T14:47:05.903Z,4.93
2019-06-01T14:49:31.494Z,2.90
2019-06-01T14:51:58.552Z,3.70
2019-06-01T14:54:25.604Z,2.87
2019-06-01T14:56:53.871Z,4.20
2019-06-01T14:59:20.936Z,3.20
2019-06-01T15:02:03.452Z,3.00
2019-06-01T15:04:30.488Z,3.30
2019-06-01T15:06:58.595Z,4.03
2019-06-01T15:09:25.996Z,3.53
2019-06-01T15:11:54.398Z,3.60
2019-06-01T15:14:22.020Z,3.40
2019-06-01T15:16:49.509Z,4.57
2019-06-01T15:19:17.140Z,4.13
2019-06-01T15:21:44.209Z,3.20
2019-06-01T15:24:11.265Z,3.43
2019-06-01T15:26:38.316Z,4.47
2019-06-01T15:29:05.880Z,4.07
2019-06-01T15:31:33.396Z,4.00
2019-06-01T15:34:01.850Z,4.57
2019-06-01T15:36:29.008Z,3.50
2019-06-01T15:38:56.057Z,3.60
2019-06-01T15:41:23.108Z,3.77
2019-06-01T15:43:50.895Z,2.90
2019-06-01T15:46:18.020Z,2.90
2019-06-01T15:48:45.265Z,3.20
2019-06-01T15:51:13.497Z,3.80
2019-06-01T15:53:40.544Z,3.30
2019-06-01T15:56:07.600Z,4.03
2019-06-01T15:58:34.724Z,3.50
2019-06-01T16:01:03.079Z,2.93
2019-06-01T16:03:34.064Z,3.73
2019-06-01T16:05:59.494Z,4.63
2019-06-01T16:08:26.555Z,3.37
2019-06-01T16:10:53.620Z,4.03
2019-06-01T16:13:20.693Z,3.20
2019-06-01T16:15:47.748Z,3.50
2019-06-01T16:18:14.801Z,3.20
2019-06-01T16:20:41.844Z,3.53
2019-06-01T16:23:08.904Z,4.53
2019-06-01T16:25:35.960Z,2.53
2019-06-01T16:28:03.935Z,3.03
2019-06-01T16:30:32.212Z,5.37
2019-06-01T16:33:00.621Z,3.57
2019-06-01T16:35:27.811Z,6.40
2019-06-01T16:37:55.024Z,3.30
2019-06-01T16:40:22.456Z,4.07
2019-06-01T16:42:49.575Z,4.00
2019-06-01T16:45:17.039Z,4.03
2019-06-01T16:47:44.139Z,3.20
2019-06-01T16:50:11.488Z,3.40
2019-06-01T16:52:38.892Z,3.73
2019-06-01T16:55:07.322Z,2.87
2019-06-01T16:57:34.782Z,3.57
2019-06-01T17:00:02.757Z,3.97
2019-06-01T17:02:31.932Z,5.43
2019-06-01T17:04:59.095Z,5.73
2019-06-01T17:07:26.380Z,3.20
2019-06-01T17:09:53.440Z,3.30
2019-06-01T17:12:20.705Z,3.50
2019-06-01T17:14:47.800Z,3.40
2019-06-01T17:17:14.860Z,3.63
2019-06-01T17:19:41.920Z,6.23
2019-06-01T17:22:09.084Z,3.20
2019-06-01T17:24:37.347Z,4.37
2019-06-01T17:27:04.415Z,3.20
2019-06-01T17:29:31.572Z,3.47
2019-06-01T17:32:13.460Z,3.40
2019-06-01T17:34:27.601Z,3.57
2019-06-01T17:36:54.768Z,3.60
2019-06-01T17:39:22.027Z,3.47
2019-06-01T17:41:49.084Z,4.53
2019-06-01T17:44:16.151Z,3.13
2019-06-01T17:46:53.128Z,3.30
2019-06-01T17:49:12.426Z,3.30
2019-06-01T17:51:39.871Z,4.00
2019-06-01T17:54:08.344Z,4.17
2019-06-01T17:56:35.704Z,4.03
2019-06-01T17:59:03.412Z,4.60
2019-06-01T18:01:30.544Z,6.13
2019-06-01T18:03:57.595Z,3.93
2019-06-01T18:06:24.688Z,3.47
2019-06-01T18:08:51.728Z,3.93
2019-06-01T18:11:18.788Z,3.73
2019-06-01T18:13:46.057Z,3.90
2019-06-01T18:16:13.265Z,3.27
2019-06-01T18:18:40.504Z,3.23
2019-06-01T18:21:10.307Z,3.97
2019-06-01T18:23:37.612Z,3.70
2019-06-01T18:26:05.109Z,4.60
2019-06-01T18:28:32.668Z,4.67
2019-06-01T18:30:59.823Z,4.67
2019-06-01T18:33:26.974Z,3.50
2019-06-01T18:35:54.053Z,5.00
2019-06-01T18:38:21.220Z,8.87
2019-06-01T18:40:48.521Z,5.67
2019-06-01T18:43:17.448Z,8.00
2019-06-01T18:45:45.585Z,5.07
2019-06-01T18:48:14.240Z,7.37
2019-06-01T18:50:41.638Z,6.33
2019-06-01T18:53:10.062Z,7.47
2019-06-01T18:55:38.772Z,7.47
2019-06-01T18:58:06.351Z,6.13
2019-06-01T19:00:38.526Z,5.23
2019-06-01T19:03:04.550Z,4.60
2019-06-01T19:05:31.693Z,4.13
2019-06-01T19:07:58.735Z,4.73
2019-06-01T19:10:25.887Z,6.93
2019-06-01T19:12:52.946Z,5.80
2019-06-01T19:15:28.506Z,5.07
2019-06-01T19:17:49.726Z,4.80
2019-06-01T19:20:17.069Z,4.43
2019-06-01T19:22:44.460Z,5.07
2019-06-01T19:25:13.206Z,4.37
2019-06-01T19:27:40.602Z,4.73
2019-06-01T19:30:10.851Z,5.60
2019-06-01T19:32:41.846Z,5.47
2019-06-01T19:35:09.620Z,5.53
2019-06-01T19:37:39.777Z,5.33
2019-06-01T19:40:07.158Z,5.20
2019-06-01T19:42:35.816Z,5.20
2019-06-01T19:45:04.314Z,5.23
2019-06-01T19:47:31.674Z,5.97
2019-06-01T19:49:58.744Z,6.63
2019-06-01T19:52:25.841Z,8.43
2019-06-01T19:54:53.183Z,8.03
2019-06-01T19:57:22.685Z,7.67
2019-06-01T19:59:49.285Z,8.20
2019-06-01T20:02:28.363Z,9.07
2019-06-01T20:04:45.296Z,5.73
2019-06-01T20:07:13.050Z,5.40
2019-06-01T20:09:40.421Z,5.67
2019-06-01T20:12:12.930Z,6.60
2019-06-01T20:14:37.547Z,5.43
2019-06-01T20:17:04.616Z,7.33
2019-06-01T20:19:31.933Z,6.90
2019-06-01T20:21:58.996Z,7.07
2019-06-01T20:24:26.435Z,6.30
2019-06-01T20:26:53.500Z,6.77
2019-06-01T20:29:21.718Z,6.10
2019-06-01T20:31:49.033Z,7.20
2019-06-01T20:34:16.197Z,7.17
2019-06-01T20:36:43.356Z,6.43
2019-06-01T20:39:10.420Z,5.90
2019-06-01T20:41:37.472Z,6.50
2019-06-01T20:44:04.767Z,6.83
2019-06-01T20:46:31.914Z,7.20
2019-06-01T20:48:58.980Z,6.03
2019-06-01T20:51:27.783Z,6.00
2019-06-01T20:53:55.130Z,8.27
2019-06-01T20:56:23.536Z,8.53
2019-06-01T20:58:50.965Z,8.07
2019-06-01T21:01:18.016Z,6.80
2019-06-01T21:03:45.068Z,7.30
2019-06-01T21:06:12.120Z,7.33
2019-06-01T21:08:39.182Z,7.13
2019-06-01T21:11:06.252Z,7.60
2019-06-01T21:13:33.328Z,7.10
2019-06-01T21:16:00.375Z,7.43
2019-06-01T21:18:27.444Z,7.63
2019-06-01T21:20:54.522Z,8.33
2019-06-01T21:23:22.977Z,8.53
2019-06-01T21:25:50.401Z,9.63
2019-06-01T21:28:18.529Z,10.30
2019-06-01T21:30:46.427Z,9.10
2019-06-01T21:33:13.488Z,10.20
2019-06-01T21:35:40.640Z,10.73
2019-06-01T21:38:07.716Z,8.47
2019-06-01T21:40:34.768Z,8.50
2019-06-01T21:43:20.277Z,9.27
2019-06-01T21:45:31.087Z,9.33
2019-06-01T21:47:58.164Z,9.03
2019-06-01T21:50:25.979Z,8.80
2019-06-01T21:52:53.284Z,10.07
2019-06-01T21:55:20.356Z,8.80
2019-06-01T21:57:47.508Z,9.27
2019-06-01T22:00:24.943Z,9.73
2019-06-01T22:02:53.924Z,9.07
2019-06-01T22:05:21.165Z,11.17
2019-06-01T22:07:48.215Z,9.63
2019-06-01T22:10:15.568Z,8.53
2019-06-01T22:12:42.618Z,8.30
2019-06-01T22:15:10.212Z,9.30
2019-06-01T22:17:37.277Z,10.27
2019-06-01T22:20:05.419Z,9.20
2019-06-01T22:22:32.475Z,10.63
2019-06-01T22:24:59.536Z,9.83
2019-06-01T22:27:26.599Z,8.33
2019-06-01T22:29:53.653Z,8.73
2019-06-01T22:32:24.703Z,8.53
2019-06-01T22:34:49.678Z,8.57
2019-06-01T22:37:16.733Z,8.97
2019-06-01T22:39:43.891Z,9.63
2019-06-01T22:42:10.942Z,10.10
2019-06-01T22:44:38.015Z,10.50
2019-06-01T22:47:05.080Z,10.63
2019-06-01T22:49:32.990Z,10.10
2019-06-01T22:52:00.095Z,10.43
2019-06-01T22:54:27.500Z,8.90
2019-06-01T22:56:54.549Z,9.17
2019-06-01T22:59:22.441Z,16.77
2019-06-01T23:01:49.876Z,9.30
2019-06-01T23:04:16.946Z,9.63
2019-06-01T23:06:44.008Z,9.10
2019-06-01T23:09:11.058Z,9.53
2019-06-01T23:11:38.117Z,10.70
2019-06-01T23:14:05.381Z,9.80
2019-06-01T23:16:32.480Z,10.10
2019-06-01T23:18:59.567Z,10.57
2019-06-01T23:21:27.790Z,9.97
2019-06-01T23:23:55.311Z,11.03
2019-06-01T23:26:22.471Z,10.93
2019-06-01T23:28:49.520Z,10.83
2019-06-01T23:31:16.615Z,11.20
2019-06-01T23:33:43.764Z,11.47
2019-06-01T23:36:10.812Z,10.40
2019-06-01T23:38:39.175Z,10.80
2019-06-01T23:41:06.333Z,11.93
2019-06-01T23:43:33.408Z,11.47
2019-06-01T23:46:00.467Z,10.67
2019-06-01T23:48:27.713Z,11.87
2019-06-01T23:50:54.786Z,11.20
2019-06-01T23:53:23.337Z,11.43
2019-06-01T23:55:50.640Z,11.53
2019-06-01T23:58:17.699Z,11.77
